CheckWX is a tool to help pilots better visualize weather data.  It is not intended as a substitute for an official pre-flight weather briefing.

17:06:11 UTC

EPRZ TAF
Rzeszów-Jasionka Airport
Rzeszów, Poland
TAF EPRZ 111730Z 1118/1218 32008KT 9999 BKN040 TEMPO 1118/1124 SHRA BKN009 BKN014CB PROB30 TEMPO 1118/1122 VRB15G30KT 2000 TSRA BECMG 1122/1124 4000 -RA BR BKN008 TEMPO 1122/1206 2000 RA BR BECMG 1207/1210 CAVOK TEMPO 1211/1217 -SHRA SCT030CB

Jul-11@
18:00 UTC

Jul-11 @ 18:00 UTC

Jul-11@
22:00 UTC

Jul-11 @ 22:00 UTC

TAF EPRZ 111730Z 1118/1218 32008KT 9999 BKN040

Expired

Wind
  • 320° at 8 KTS
Cloud Levels
  • Broken at 4,000' AGL

Jul-11@
18:00 UTC

Jul-11 @ 18:00 UTC

Jul-11@
22:00 UTC

Jul-11 @ 22:00 UTC

PROB30 TEMPO 1118/1122 VRB15G30KT 2000 TSRA

Expired

Wind
  • Variable at 15 KTS
  • {Gusting to 30 KTS
Conditions
Thunderstorm, Rain
Cloud Levels

Jul-11@
18:00 UTC

Jul-11 @ 18:00 UTC

Jul-12@
00:00 UTC

Jul-12 @ 00:00 UTC

TEMPO 1118/1124 SHRA BKN009 BKN014CB

Expired

Conditions
Showers, Rain
Cloud Levels
  • Broken at 900' AGL
  • Broken at 1,400' AGL

Jul-11@
22:00 UTC

Jul-11 @ 22:00 UTC

Jul-12@
06:00 UTC

Jul-12 @ 06:00 UTC

TEMPO 1122/1206 2000 RA BR

Expired

Conditions
Rain, Mist
Cloud Levels

Jul-11@
22:00 UTC

Jul-11 @ 22:00 UTC

Jul-12@
07:00 UTC

Jul-12 @ 07:00 UTC

BECMG 1122/1124 4000 -RA BR BKN008

Expired

Wind
  • 320° at 8 KTS
Conditions
Light Rain, Mist
Cloud Levels
  • Broken at 800' AGL

Jul-12@
07:00 UTC

Jul-12 @ 07:00 UTC

Jul-12@
18:00 UTC

Jul-12 @ 18:00 UTC

BECMG 1207/1210 CAVOK

Becoming

Becoming Conditions expected by Sun, Jul 12, 2020 @ 10:00 UTC

Wind
  • 320° at 8 KTS
Conditions
No significant weather
Cloud Levels
  • No significant clouds

Jul-12@
11:00 UTC

Jul-12 @ 11:00 UTC

Jul-12@
17:00 UTC

Jul-12 @ 17:00 UTC

TEMPO 1211/1217 -SHRA SCT030CB

Expired

Conditions
Light Showers, Rain
Cloud Levels
  • Scattered at 3,000' AGL